Map

Track Data

SID SEASON NUMBER BASIN SUBBASIN NAME ISO_TIME NATURE LAT LON WMO_WIND WMO_PRES WMO_AGENCY TRACK_TYPE DIST2LAND LANDFALL IFLAG USA_AGENCY USA_ATCF_ID USA_LAT USA_LON USA_RECORD USA_STATUS USA_WIND USA_PRES USA_SSHS USA_R34_NE USA_R34_SE USA_R34_SW USA_R34_NW USA_R50_NE USA_R50_SE USA_R50_SW USA_R50_NW USA_R64_NE USA_R64_SE USA_R64_SW USA_R64_NW USA_POCI USA_ROCI USA_RMW USA_EYE TOKYO_LAT TOKYO_LON TOKYO_GRADE TOKYO_WIND TOKYO_PRES TOKYO_R50_DIR TOKYO_R50_LONG TOKYO_R50_SHORT TOKYO_R30_DIR TOKYO_R30_LONG TOKYO_R30_SHORT TOKYO_LAND CMA_LAT CMA_LON CMA_CAT CMA_WIND CMA_PRES HKO_LAT HKO_LON HKO_CAT HKO_WIND HKO_PRES NEWDELHI_LAT NEWDELHI_LON NEWDELHI_GRADE NEWDELHI_WIND NEWDELHI_PRES NEWDELHI_CI NEWDELHI_DP NEWDELHI_POCI REUNION_LAT REUNION_LON REUNION_TYPE REUNION_WIND REUNION_PRES REUNION_TNUM REUNION_CI REUNION_RMW REUNION_R34_NE REUNION_R34_SE REUNION_R34_SW REUNION_R34_NW REUNION_R50_NE REUNION_R50_SE REUNION_R50_SW REUNION_R50_NW REUNION_R64_NE REUNION_R64_SE REUNION_R64_SW REUNION_R64_NW BOM_LAT BOM_LON BOM_TYPE BOM_WIND BOM_PRES BOM_TNUM BOM_CI BOM_RMW BOM_R34_NE BOM_R34_SE BOM_R34_SW BOM_R34_NW BOM_R50_NE BOM_R50_SE BOM_R50_SW BOM_R50_NW BOM_R64_NE BOM_R64_SE BOM_R64_SW BOM_R64_NW BOM_ROCI BOM_POCI BOM_EYE BOM_POS_METHOD BOM_PRES_METHOD NADI_LAT NADI_LON NADI_CAT NADI_WIND NADI_PRES WELLINGTON_LAT WELLINGTON_LON WELLINGTON_WIND WELLINGTON_PRES DS824_LAT DS824_LON DS824_STAGE DS824_WIND DS824_PRES TD9636_LAT TD9636_LON TD9636_STAGE TD9636_WIND TD9636_PRES TD9635_LAT TD9635_LON TD9635_WIND TD9635_PRES TD9635_ROCI NEUMANN_LAT NEUMANN_LON NEUMANN_CLASS NEUMANN_WIND NEUMANN_PRES MLC_LAT MLC_LON MLC_CLASS MLC_WIND MLC_PRES USA_GUST BOM_GUST BOM_GUST_PER REUNION_GUST REUNION_GUST_PER USA_SEAHGT USA_SEARAD_NE USA_SEARAD_SE USA_SEARAD_SW USA_SEARAD_NW STORM_SPEED STORM_DIR
1882009S17079 1882 3 SI MM NOT_NAMED 1882-01-09 00:00:00 TS -16.5000 79.0000 main 2275 2210 _________O____ -1 -16.5000 79.0000 TC 14 224
1882009S17079 1882 3 SI MM NOT_NAMED 1882-01-09 03:00:00 TS -17.0002 78.5030 main 2210 2146 _________P____ -1 -17.0002 78.5030 TC 14 224
1882009S17079 1882 3 SI MM NOT_NAMED 1882-01-09 06:00:00 TS -17.5000 78.0000 main 2146 2084 _________O____ -1 -17.5000 78.0000 TC 14 224
1882009S17079 1882 3 SI MM NOT_NAMED 1882-01-09 09:00:00 TS -17.9999 77.4923 main 2084 2022 _________P____ -1 -17.9999 77.4923 TC 14 224
1882009S17079 1882 3 SI MM NOT_NAMED 1882-01-09 12:00:00 TS -18.5000 77.0000 main 2022 1972 _________O____ -1 -18.5000 77.0000 TC 13 222
1882009S17079 1882 3 SI MM NOT_NAMED 1882-01-09 15:00:00 TS -18.9923 76.5421 main 1962 1914 _________P____ -1 -18.9923 76.5421 TC 13 220
1882009S17079 1882 3 SI MM NOT_NAMED 1882-01-09 18:00:00 TS -19.5000 76.1000 main 1914 1867 _________O____ -1 -19.5000 76.1000 TC 14 219
1882009S17079 1882 3 SI MM NOT_NAMED 1882-01-09 21:00:00 TS -20.0500 75.6350 main 1857 1812 _________P____ -1 -20.0500 75.6350 TC 14 218
1882009S17079 1882 3 SI MM NOT_NAMED 1882-01-10 00:00:00 TS -20.6000 75.2000 main 1812 1769 _________O____ -1 -20.6000 75.2000 TC 13 216
1882009S17079 1882 3 SI MM NOT_NAMED 1882-01-10 03:00:00 TS -21.1074 74.8271 main 1769 1738 _________P____ -1 -21.1074 74.8271 TC 12 213
1882009S17079 1882 3 SI MM NOT_NAMED 1882-01-10 06:00:00 TS -21.6000 74.5000 main 1739 1710 _________O____ -1 -21.6000 74.5000 TC 12 211
1882009S17079 1882 3 SI MM NOT_NAMED 1882-01-10 09:00:00 TS -22.0849 74.1847 main 1710 1683 _________P____ -1 -22.0849 74.1847 TC 11 209
1882009S17079 1882 3 SI MM NOT_NAMED 1882-01-10 12:00:00 TS -22.6000 73.9000 main 1684 1660 _________O____ -1 -22.6000 73.9000 TC 12 206
1882009S17079 1882 3 SI MM NOT_NAMED 1882-01-10 15:00:00 TS -23.1775 73.6201 main 1662 1651 _________P____ -1 -23.1775 73.6201 TC 13 201
1882009S17079 1882 3 SI MM NOT_NAMED 1882-01-10 18:00:00 TS -23.8000 73.4000 main 1653 1647 _________O____ -1 -23.8000 73.4000 TC 13 194
1882009S17079 1882 3 SI MM NOT_NAMED 1882-01-10 21:00:00 TS -24.4499 73.2697 main 1656 1652 _________P____ -1 -24.4499 73.2697 TC 13 188
1882009S17079 1882 3 SI MM NOT_NAMED 1882-01-11 00:00:00 TS -25.1000 73.2000 main 1666 1666 _________O____ -1 -25.1000 73.2000 TC 13 185
1882009S17079 1882 3 SI MM NOT_NAMED 1882-01-11 03:00:00 TS -25.7075 73.1423 main 1676 1676 _________P____ -1 -25.7075 73.1423 TC 12 184
1882009S17079 1882 3 SI MM NOT_NAMED 1882-01-11 06:00:00 TS -26.3000 73.1000 main 1697 1697 _________O____ -1 -26.3000 73.1000 TC 12 184
1882009S17079 1882 3 SI MM NOT_NAMED 1882-01-11 09:00:00 TS -26.9150 73.0426 main 1711 1711 _________P____ -1 -26.9150 73.0426 TC 12 184
1882009S17079 1882 3 SI MM NOT_NAMED 1882-01-11 12:00:00 TS -27.5000 73.0000 main 1737 1737 _________O____ -1 -27.5000 73.0000 TC 11 182
1882009S17079 1882 3 SI MM NOT_NAMED 1882-01-11 15:00:00 TS -28.0225 72.9924 main 1760 1760 _________P____ -1 -28.0225 72.9924 TC 10 179
1882009S17079 1882 3 SI MM NOT_NAMED 1882-01-11 18:00:00 TS -28.5000 73.0000 main 1784 1784 _________O____ -1 -28.5000 73.0000 TC 9 178
1882009S17079 1882 3 SI MM NOT_NAMED 1882-01-11 21:00:00 TS -28.9550 73.0026 main 1810 1810 _________P____ -1 -28.9550 73.0026 TC 9 0
1882009S17079 1882 3 SI MM NOT_NAMED 1882-01-12 00:00:00 TS -29.4000 73.0000 main 1831 _________O____ -1 -29.4000 73.0000 TC 9 0

About IBTrACS Database

This database is a web-friendly format of International Best Track Archive for Climate Stewardship (IBTrACS), a global best track data archive curated by NOAA dating back to 1842.

Updated: 2021-10-27